Surat Airport
VASU : now visible

Airfield :











YOU CAN JOIN US ON...

 
LOGIN :

Register | Disclaimer

   EN    FR    IT 

 









Legend :    VFR   Marginal VFR   IFR   Intensive IFR   Very Intensive IFR
Visi :
Ceiling :
>= 8 km
>= 3000ft
5 to 8 km
1000 to 3000 ft
1500m to 5 km
500 to 1000 ft
800 to 1500m
200 to 500 ft
< 800m
< 200 ft
Symbols :   Thunderstorms  Fog  Heavy snow  Heavy precipitations  Wind > 20 kt







- Airport Elevation : 16 ft
- IATA code : STV


VASU - Surat

CURRENT METAR :
  • 201900Z 21004KT 6000 FEW015 SCT020 30/26 Q1005 NOSIG

EXPIRED METARs :
  • 201830Z 22005KT 6000 FEW015 SCT020 30/26 Q1005 NOSIG
  • 201800Z 22005KT 6000 FEW015 SCT020 30/26 Q1005 NOSIG
  • 201730Z 20007KT 6000 FEW020 30/26 Q1005 NOSIG
  • 201700Z 21006KT 6000 FEW020 30/26 Q1004 NOSIG
  • 201630Z 20007KT 6000 FEW020 30/26 Q1004 NOSIG
  • 201600Z 21007KT 6000 FEW020 30/25 Q1004 NOSIG

TAF TAF VASU
Valid from the 20 at 18:00 until the 21 at 03:00 UTC


201700Z 2018/2103 23008KT 6000 SCT020 SCT080
BECMG 2101/2103 27004KT 3000 HZ-TSRA SCT012 SCT020 FEW030TCU BKN080
No reported NOTAMs for that airfield.



MET'MAP, your aeronautical weather chart ! - Copyright ORBIFLY December 2007 - Disclaimer

ORBIFLY MET'MAP TEAM :

Programming & Development : Alexandra Zaïnal
Concept & Development : Baudouin d'Aumeries
Co-Development & Prog : Marc-Olivier Méhu
Technical & hardware support : Manuel Goepfert

Contact : metmap@orbifly.com




SOURCES & CREDITS :

   NOAA       Earth
Advisory